Spirit of St Louis Airport
KSUS : now visible

Airfield :











YOU CAN JOIN US ON...

 
LOGIN :

Register | Disclaimer

   EN    FR    IT 

 









Legend :    VFR   Marginal VFR   IFR   Intensive IFR   Very Intensive IFR
Visi :
Ceiling :
>= 8 km
>= 3000ft
5 to 8 km
1000 to 3000 ft
1500m to 5 km
500 to 1000 ft
800 to 1500m
200 to 500 ft
< 800m
< 200 ft
Symbols :   Thunderstorms  Fog  Heavy snow  Heavy precipitations  Wind > 20 kt






- Airport Elevation : 463 ft


KSUS - Spirit of St Louis

CURRENT METAR :
  • 280532Z AUTO 30019G36KT 10SM BKN065 OVC080 06/00 A2961 RMK AO2 PK WND 31036/0529 PRESRR T00610000 $

EXPIRED METARs :
  • 280454Z 29014G26KT 10SM FEW080 SCT120 08/01 A2952 RMK AO2 PK WND 31031/0404 LTG DSNT N SLP994 P0001 T00780006 $
  • 280354Z 32013G21KT 10SM FEW070 SCT085 BKN110 12/04 A2944 RMK AO2 PK WND 29031/0310 RAE04B22E44 SLP964 P0001 T01220044 $
  • 280254Z 28017G26KT 9SM -RA FEW070 OVC100 22/08 A2935 RMK AO2 PK WND 25027/0241 RAB45 SLP930 P0000 60000 T02220083 52017 $
  • 280154Z 23008KT 10SM CLR 24/04 A2933 RMK AO2 PK WND 23031/0112 SLP925 T02440039 $
  • 280054Z 23013G25KT 10SM CLR 26/04 A2931 RMK AO2 SLP919 T02560044 $

TAF KSUS
Valid from the 28 at 03:00 until the 29 at 00:00 UTC


280302Z 2803/2824 30018G30KT P6SM -SHRA SCT050 OVC100
FM280900 31021G33KT P6SM SCT029 BKN050
FM282100 30012KT P6SM SKC
KZKC FIR / North America



MET'MAP, your aeronautical weather chart ! - Copyright ORBIFLY December 2007 - Disclaimer

ORBIFLY MET'MAP TEAM :

Programming & Development : Alexandra Zaïnal
Original concept : Baudouin d'Aumeries
Technical & hardware support : Manuel Goepfert
Assistance : Marc-Olivier Méhu




SOURCES & CREDITS :

   NOAA       Earth
Advisory